sensor_id;sensor_type;location;lat;lon;timestamp;P1;durP1;ratioP1;P2;durP2;ratioP2
21507;SDS011;10915;54.352;9.074;2024-01-07T00:01:45;7.10;;;5.27;;
21507;SDS011;10915;54.352;9.074;2024-01-07T00:04:12;9.80;;;5.00;;
21507;SDS011;10915;54.352;9.074;2024-01-07T00:06:37;7.93;;;5.30;;
21507;SDS011;10915;54.352;9.074;2024-01-07T00:09:03;7.23;;;5.07;;
21507;SDS011;10915;54.352;9.074;2024-01-07T00:11:28;8.50;;;5.60;;
21507;SDS011;10915;54.352;9.074;2024-01-07T00:13:54;10.17;;;5.37;;
21507;SDS011;10915;54.352;9.074;2024-01-07T00:16:19;8.00;;;4.70;;
21507;SDS011;10915;54.352;9.074;2024-01-07T00:18:45;11.50;;;5.10;;
21507;SDS011;10915;54.352;9.074;2024-01-07T00:21:15;9.20;;;5.17;;
21507;SDS011;10915;54.352;9.074;2024-01-07T00:23:48;8.50;;;5.30;;
21507;SDS011;10915;54.352;9.074;2024-01-07T00:26:14;8.33;;;5.07;;
21507;SDS011;10915;54.352;9.074;2024-01-07T00:28:39;8.10;;;5.17;;
21507;SDS011;10915;54.352;9.074;2024-01-07T00:31:05;8.87;;;5.20;;
21507;SDS011;10915;54.352;9.074;2024-01-07T00:33:33;9.10;;;5.50;;
21507;SDS011;10915;54.352;9.074;2024-01-07T00:35:59;9.33;;;5.60;;
21507;SDS011;10915;54.352;9.074;2024-01-07T00:38:25;8.17;;;5.33;;
21507;SDS011;10915;54.352;9.074;2024-01-07T00:40:50;9.67;;;5.70;;
21507;SDS011;10915;54.352;9.074;2024-01-07T00:43:16;9.60;;;5.47;;
21507;SDS011;10915;54.352;9.074;2024-01-07T00:45:43;8.57;;;5.17;;
21507;SDS011;10915;54.352;9.074;2024-01-07T00:48:09;7.43;;;4.93;;
21507;SDS011;10915;54.352;9.074;2024-01-07T00:50:34;9.37;;;5.70;;
21507;SDS011;10915;54.352;9.074;2024-01-07T00:53:00;10.37;;;5.80;;
21507;SDS011;10915;54.352;9.074;2024-01-07T00:55:25;7.73;;;5.37;;
21507;SDS011;10915;54.352;9.074;2024-01-07T00:57:51;11.23;;;5.70;;
21507;SDS011;10915;54.352;9.074;2024-01-07T01:00:17;7.67;;;4.97;;
21507;SDS011;10915;54.352;9.074;2024-01-07T01:02:46;9.67;;;5.30;;
21507;SDS011;10915;54.352;9.074;2024-01-07T01:05:11;8.93;;;6.00;;
21507;SDS011;10915;54.352;9.074;2024-01-07T01:07:37;8.20;;;5.23;;
21507;SDS011;10915;54.352;9.074;2024-01-07T01:10:03;9.53;;;5.63;;
21507;SDS011;10915;54.352;9.074;2024-01-07T01:12:29;8.20;;;5.00;;
21507;SDS011;10915;54.352;9.074;2024-01-07T01:14:54;8.10;;;5.17;;
21507;SDS011;10915;54.352;9.074;2024-01-07T01:17:20;8.37;;;5.67;;
21507;SDS011;10915;54.352;9.074;2024-01-07T01:19:45;8.17;;;5.00;;
21507;SDS011;10915;54.352;9.074;2024-01-07T01:22:11;8.17;;;5.13;;
21507;SDS011;10915;54.352;9.074;2024-01-07T01:24:36;8.03;;;4.67;;
21507;SDS011;10915;54.352;9.074;2024-01-07T01:27:02;6.73;;;4.83;;
21507;SDS011;10915;54.352;9.074;2024-01-07T01:29:28;9.40;;;4.60;;
21507;SDS011;10915;54.352;9.074;2024-01-07T01:31:54;9.40;;;5.20;;
21507;SDS011;10915;54.352;9.074;2024-01-07T01:34:20;9.60;;;5.00;;
21507;SDS011;10915;54.352;9.074;2024-01-07T01:36:45;8.87;;;5.37;;
21507;SDS011;10915;54.352;9.074;2024-01-07T01:39:11;7.67;;;4.80;;
21507;SDS011;10915;54.352;9.074;2024-01-07T01:41:36;8.47;;;4.63;;
21507;SDS011;10915;54.352;9.074;2024-01-07T01:44:02;6.90;;;4.23;;
21507;SDS011;10915;54.352;9.074;2024-01-07T01:46:28;7.47;;;3.93;;
21507;SDS011;10915;54.352;9.074;2024-01-07T01:48:54;8.67;;;4.70;;
21507;SDS011;10915;54.352;9.074;2024-01-07T01:51:21;11.00;;;5.33;;
21507;SDS011;10915;54.352;9.074;2024-01-07T01:53:47;6.93;;;3.97;;
21507;SDS011;10915;54.352;9.074;2024-01-07T01:56:14;9.50;;;4.93;;
21507;SDS011;10915;54.352;9.074;2024-01-07T01:58:41;7.80;;;4.50;;
21507;SDS011;10915;54.352;9.074;2024-01-07T02:01:07;7.50;;;4.67;;
21507;SDS011;10915;54.352;9.074;2024-01-07T02:03:33;8.20;;;5.00;;
21507;SDS011;10915;54.352;9.074;2024-01-07T02:05:58;8.90;;;5.50;;
21507;SDS011;10915;54.352;9.074;2024-01-07T02:08:24;8.93;;;5.43;;
21507;SDS011;10915;54.352;9.074;2024-01-07T02:10:50;7.50;;;5.70;;
21507;SDS011;10915;54.352;9.074;2024-01-07T02:13:16;8.40;;;5.57;;
21507;SDS011;10915;54.352;9.074;2024-01-07T02:15:42;12.17;;;5.50;;
21507;SDS011;10915;54.352;9.074;2024-01-07T02:18:08;12.53;;;5.83;;
21507;SDS011;10915;54.352;9.074;2024-01-07T02:20:34;8.80;;;5.23;;
21507;SDS011;10915;54.352;9.074;2024-01-07T02:23:01;8.00;;;5.03;;
21507;SDS011;10915;54.352;9.074;2024-01-07T02:25:27;12.97;;;5.47;;
21507;SDS011;10915;54.352;9.074;2024-01-07T02:27:52;8.43;;;4.83;;
21507;SDS011;10915;54.352;9.074;2024-01-07T02:30:18;6.17;;;4.20;;
21507;SDS011;10915;54.352;9.074;2024-01-07T02:32:44;7.87;;;4.97;;
21507;SDS011;10915;54.352;9.074;2024-01-07T02:35:09;7.70;;;4.63;;
21507;SDS011;10915;54.352;9.074;2024-01-07T02:37:35;6.70;;;4.43;;
21507;SDS011;10915;54.352;9.074;2024-01-07T02:40:01;8.73;;;4.97;;
21507;SDS011;10915;54.352;9.074;2024-01-07T02:42:26;8.97;;;5.27;;
21507;SDS011;10915;54.352;9.074;2024-01-07T02:44:52;8.20;;;5.33;;
21507;SDS011;10915;54.352;9.074;2024-01-07T02:47:17;13.80;;;5.37;;
21507;SDS011;10915;54.352;9.074;2024-01-07T02:49:43;7.90;;;4.73;;
21507;SDS011;10915;54.352;9.074;2024-01-07T02:52:09;8.17;;;4.67;;
21507;SDS011;10915;54.352;9.074;2024-01-07T02:54:34;8.60;;;4.50;;
21507;SDS011;10915;54.352;9.074;2024-01-07T02:57:00;6.50;;;3.97;;
21507;SDS011;10915;54.352;9.074;2024-01-07T02:59:25;5.33;;;3.93;;
21507;SDS011;10915;54.352;9.074;2024-01-07T03:01:51;7.87;;;4.23;;
21507;SDS011;10915;54.352;9.074;2024-01-07T03:04:17;9.80;;;5.00;;
21507;SDS011;10915;54.352;9.074;2024-01-07T03:06:43;7.47;;;4.90;;
21507;SDS011;10915;54.352;9.074;2024-01-07T03:09:08;7.03;;;4.30;;
21507;SDS011;10915;54.352;9.074;2024-01-07T03:11:38;9.07;;;4.70;;
21507;SDS011;10915;54.352;9.074;2024-01-07T03:14:06;11.13;;;4.80;;
21507;SDS011;10915;54.352;9.074;2024-01-07T03:16:31;11.23;;;6.23;;
21507;SDS011;10915;54.352;9.074;2024-01-07T03:18:57;8.20;;;5.33;;
21507;SDS011;10915;54.352;9.074;2024-01-07T03:21:23;8.90;;;5.47;;
21507;SDS011;10915;54.352;9.074;2024-01-07T03:23:50;9.33;;;5.73;;
21507;SDS011;10915;54.352;9.074;2024-01-07T03:26:16;10.17;;;5.33;;
21507;SDS011;10915;54.352;9.074;2024-01-07T03:28:43;9.03;;;5.77;;
21507;SDS011;10915;54.352;9.074;2024-01-07T03:31:10;10.87;;;5.70;;
21507;SDS011;10915;54.352;9.074;2024-01-07T03:33:37;11.40;;;6.07;;
21507;SDS011;10915;54.352;9.074;2024-01-07T03:36:07;9.93;;;5.90;;
21507;SDS011;10915;54.352;9.074;2024-01-07T03:38:33;9.03;;;5.87;;
21507;SDS011;10915;54.352;9.074;2024-01-07T03:40:59;10.27;;;6.00;;
21507;SDS011;10915;54.352;9.074;2024-01-07T03:43:25;7.57;;;5.00;;
21507;SDS011;10915;54.352;9.074;2024-01-07T03:45:50;9.23;;;5.57;;
21507;SDS011;10915;54.352;9.074;2024-01-07T03:48:16;10.23;;;6.07;;
21507;SDS011;10915;54.352;9.074;2024-01-07T03:50:42;9.63;;;5.83;;
21507;SDS011;10915;54.352;9.074;2024-01-07T03:53:08;9.77;;;5.80;;
21507;SDS011;10915;54.352;9.074;2024-01-07T03:55:34;8.70;;;5.97;;
21507;SDS011;10915;54.352;9.074;2024-01-07T03:57:59;9.20;;;6.00;;
21507;SDS011;10915;54.352;9.074;2024-01-07T04:00:25;8.57;;;5.37;;
21507;SDS011;10915;54.352;9.074;2024-01-07T04:02:51;9.63;;;5.87;;
21507;SDS011;10915;54.352;9.074;2024-01-07T04:05:16;9.77;;;5.97;;
21507;SDS011;10915;54.352;9.074;2024-01-07T04:07:42;9.83;;;5.77;;
21507;SDS011;10915;54.352;9.074;2024-01-07T04:10:07;8.13;;;5.67;;
21507;SDS011;10915;54.352;9.074;2024-01-07T04:12:33;10.17;;;6.40;;
21507;SDS011;10915;54.352;9.074;2024-01-07T04:14:59;10.43;;;6.20;;
21507;SDS011;10915;54.352;9.074;2024-01-07T04:17:24;10.13;;;6.70;;
21507;SDS011;10915;54.352;9.074;2024-01-07T04:19:52;13.43;;;6.33;;
21507;SDS011;10915;54.352;9.074;2024-01-07T04:22:18;9.43;;;6.90;;
21507;SDS011;10915;54.352;9.074;2024-01-07T04:24:43;10.20;;;6.90;;
21507;SDS011;10915;54.352;9.074;2024-01-07T04:27:09;11.23;;;6.67;;
21507;SDS011;10915;54.352;9.074;2024-01-07T04:29:35;10.20;;;7.10;;
21507;SDS011;10915;54.352;9.074;2024-01-07T04:32:01;10.03;;;6.63;;
21507;SDS011;10915;54.352;9.074;2024-01-07T04:34:26;11.73;;;7.23;;
21507;SDS011;10915;54.352;9.074;2024-01-07T04:36:52;10.07;;;6.53;;
21507;SDS011;10915;54.352;9.074;2024-01-07T04:39:17;10.27;;;6.70;;
21507;SDS011;10915;54.352;9.074;2024-01-07T04:41:43;11.57;;;6.70;;
21507;SDS011;10915;54.352;9.074;2024-01-07T04:44:09;11.17;;;7.30;;
21507;SDS011;10915;54.352;9.074;2024-01-07T04:46:34;9.97;;;7.07;;
21507;SDS011;10915;54.352;9.074;2024-01-07T04:49:03;9.67;;;7.23;;
21507;SDS011;10915;54.352;9.074;2024-01-07T04:51:28;10.23;;;7.17;;
21507;SDS011;10915;54.352;9.074;2024-01-07T04:53:54;12.57;;;8.20;;
21507;SDS011;10915;54.352;9.074;2024-01-07T04:56:20;9.63;;;6.87;;
21507;SDS011;10915;54.352;9.074;2024-01-07T04:58:45;10.53;;;7.50;;
21507;SDS011;10915;54.352;9.074;2024-01-07T05:01:11;12.37;;;8.00;;
21507;SDS011;10915;54.352;9.074;2024-01-07T05:03:36;10.30;;;7.60;;
21507;SDS011;10915;54.352;9.074;2024-01-07T05:06:03;12.10;;;7.90;;
21507;SDS011;10915;54.352;9.074;2024-01-07T05:08:29;11.07;;;7.80;;
21507;SDS011;10915;54.352;9.074;2024-01-07T05:10:55;10.47;;;7.60;;
21507;SDS011;10915;54.352;9.074;2024-01-07T05:13:21;12.00;;;7.73;;
21507;SDS011;10915;54.352;9.074;2024-01-07T05:15:46;13.53;;;7.57;;
21507;SDS011;10915;54.352;9.074;2024-01-07T05:18:18;13.10;;;5.93;;
21507;SDS011;10915;54.352;9.074;2024-01-07T05:20:45;10.57;;;4.83;;
21507;SDS011;10915;54.352;9.074;2024-01-07T05:23:11;7.60;;;4.93;;
21507;SDS011;10915;54.352;9.074;2024-01-07T05:25:36;10.63;;;4.90;;
21507;SDS011;10915;54.352;9.074;2024-01-07T05:28:02;13.03;;;4.70;;
21507;SDS011;10915;54.352;9.074;2024-01-07T05:30:28;10.73;;;6.70;;
21507;SDS011;10915;54.352;9.074;2024-01-07T05:32:53;10.03;;;4.97;;
21507;SDS011;10915;54.352;9.074;2024-01-07T05:35:19;9.07;;;4.60;;
21507;SDS011;10915;54.352;9.074;2024-01-07T05:37:44;15.70;;;4.40;;
21507;SDS011;10915;54.352;9.074;2024-01-07T05:40:10;11.37;;;4.50;;
21507;SDS011;10915;54.352;9.074;2024-01-07T05:42:36;10.03;;;4.20;;
21507;SDS011;10915;54.352;9.074;2024-01-07T05:45:02;12.23;;;4.87;;
21507;SDS011;10915;54.352;9.074;2024-01-07T05:47:28;7.40;;;3.80;;
21507;SDS011;10915;54.352;9.074;2024-01-07T05:49:53;11.80;;;3.90;;
21507;SDS011;10915;54.352;9.074;2024-01-07T05:52:19;7.97;;;3.80;;
21507;SDS011;10915;54.352;9.074;2024-01-07T05:54:44;13.00;;;4.17;;
21507;SDS011;10915;54.352;9.074;2024-01-07T05:57:10;7.83;;;4.23;;
21507;SDS011;10915;54.352;9.074;2024-01-07T05:59:37;10.47;;;4.23;;
21507;SDS011;10915;54.352;9.074;2024-01-07T06:02:03;7.77;;;3.70;;
21507;SDS011;10915;54.352;9.074;2024-01-07T06:04:28;11.13;;;3.87;;
21507;SDS011;10915;54.352;9.074;2024-01-07T06:06:54;8.83;;;4.60;;
21507;SDS011;10915;54.352;9.074;2024-01-07T06:09:20;8.03;;;4.23;;
21507;SDS011;10915;54.352;9.074;2024-01-07T06:11:45;8.73;;;4.13;;
21507;SDS011;10915;54.352;9.074;2024-01-07T06:14:11;8.10;;;4.33;;
21507;SDS011;10915;54.352;9.074;2024-01-07T06:16:37;9.87;;;4.53;;
21507;SDS011;10915;54.352;9.074;2024-01-07T06:19:03;9.70;;;3.97;;
21507;SDS011;10915;54.352;9.074;2024-01-07T06:21:28;8.00;;;4.23;;
21507;SDS011;10915;54.352;9.074;2024-01-07T06:23:54;6.37;;;3.53;;
21507;SDS011;10915;54.352;9.074;2024-01-07T06:26:20;7.87;;;3.23;;
21507;SDS011;10915;54.352;9.074;2024-01-07T06:28:45;7.70;;;3.90;;
21507;SDS011;10915;54.352;9.074;2024-01-07T06:31:11;11.90;;;4.20;;
21507;SDS011;10915;54.352;9.074;2024-01-07T06:33:36;8.77;;;4.27;;
21507;SDS011;10915;54.352;9.074;2024-01-07T06:36:02;11.13;;;3.80;;
21507;SDS011;10915;54.352;9.074;2024-01-07T06:38:29;8.57;;;3.33;;
21507;SDS011;10915;54.352;9.074;2024-01-07T06:40:54;7.63;;;3.10;;
21507;SDS011;10915;54.352;9.074;2024-01-07T06:43:24;6.53;;;3.40;;
21507;SDS011;10915;54.352;9.074;2024-01-07T06:45:50;5.60;;;2.73;;
21507;SDS011;10915;54.352;9.074;2024-01-07T06:48:15;4.07;;;2.20;;
21507;SDS011;10915;54.352;9.074;2024-01-07T06:50:41;11.27;;;3.13;;
21507;SDS011;10915;54.352;9.074;2024-01-07T06:53:06;8.73;;;4.50;;
21507;SDS011;10915;54.352;9.074;2024-01-07T06:55:32;9.20;;;4.90;;
21507;SDS011;10915;54.352;9.074;2024-01-07T06:57:57;5.80;;;3.97;;
21507;SDS011;10915;54.352;9.074;2024-01-07T07:00:23;6.93;;;4.00;;
21507;SDS011;10915;54.352;9.074;2024-01-07T07:02:49;7.67;;;4.60;;
21507;SDS011;10915;54.352;9.074;2024-01-07T07:05:15;8.17;;;4.40;;
21507;SDS011;10915;54.352;9.074;2024-01-07T07:07:40;6.90;;;4.33;;
21507;SDS011;10915;54.352;9.074;2024-01-07T07:10:06;9.00;;;4.20;;
21507;SDS011;10915;54.352;9.074;2024-01-07T07:12:32;8.00;;;4.33;;
21507;SDS011;10915;54.352;9.074;2024-01-07T07:14:57;7.17;;;4.67;;
21507;SDS011;10915;54.352;9.074;2024-01-07T07:17:23;6.07;;;4.20;;
21507;SDS011;10915;54.352;9.074;2024-01-07T07:19:48;6.10;;;4.20;;
21507;SDS011;10915;54.352;9.074;2024-01-07T07:22:14;8.10;;;4.50;;
21507;SDS011;10915;54.352;9.074;2024-01-07T07:24:40;7.70;;;4.10;;
21507;SDS011;10915;54.352;9.074;2024-01-07T07:27:06;5.47;;;2.73;;
21507;SDS011;10915;54.352;9.074;2024-01-07T07:29:32;4.43;;;2.47;;
21507;SDS011;10915;54.352;9.074;2024-01-07T07:31:58;4.80;;;2.80;;
21507;SDS011;10915;54.352;9.074;2024-01-07T07:34:24;4.67;;;2.77;;
21507;SDS011;10915;54.352;9.074;2024-01-07T07:36:49;7.53;;;2.47;;
21507;SDS011;10915;54.352;9.074;2024-01-07T07:39:15;5.63;;;2.23;;
21507;SDS011;10915;54.352;9.074;2024-01-07T07:41:40;5.07;;;2.27;;
21507;SDS011;10915;54.352;9.074;2024-01-07T07:44:06;6.77;;;2.83;;
21507;SDS011;10915;54.352;9.074;2024-01-07T07:46:32;5.67;;;2.30;;
21507;SDS011;10915;54.352;9.074;2024-01-07T07:48:57;3.87;;;2.23;;
21507;SDS011;10915;54.352;9.074;2024-01-07T07:51:23;5.23;;;2.33;;
21507;SDS011;10915;54.352;9.074;2024-01-07T07:53:49;5.43;;;2.47;;
21507;SDS011;10915;54.352;9.074;2024-01-07T07:56:14;5.63;;;1.60;;
21507;SDS011;10915;54.352;9.074;2024-01-07T07:58:40;4.40;;;2.27;;
21507;SDS011;10915;54.352;9.074;2024-01-07T08:01:06;4.80;;;2.73;;
21507;SDS011;10915;54.352;9.074;2024-01-07T08:03:31;6.50;;;2.73;;
21507;SDS011;10915;54.352;9.074;2024-01-07T08:05:57;4.70;;;2.27;;
21507;SDS011;10915;54.352;9.074;2024-01-07T08:08:23;5.43;;;2.13;;
21507;SDS011;10915;54.352;9.074;2024-01-07T08:10:49;6.83;;;2.43;;
21507;SDS011;10915;54.352;9.074;2024-01-07T08:13:15;3.97;;;2.17;;
21507;SDS011;10915;54.352;9.074;2024-01-07T08:15:41;10.77;;;2.87;;
21507;SDS011;10915;54.352;9.074;2024-01-07T08:18:06;6.63;;;2.63;;
21507;SDS011;10915;54.352;9.074;2024-01-07T08:20:32;5.53;;;2.67;;
21507;SDS011;10915;54.352;9.074;2024-01-07T08:22:57;4.10;;;2.17;;
21507;SDS011;10915;54.352;9.074;2024-01-07T08:25:23;5.97;;;2.50;;
21507;SDS011;10915;54.352;9.074;2024-01-07T08:27:49;11.13;;;3.47;;
21507;SDS011;10915;54.352;9.074;2024-01-07T08:30:15;4.73;;;2.00;;
21507;SDS011;10915;54.352;9.074;2024-01-07T08:32:40;7.27;;;2.33;;
21507;SDS011;10915;54.352;9.074;2024-01-07T08:35:07;4.67;;;2.27;;
21507;SDS011;10915;54.352;9.074;2024-01-07T08:37:34;5.30;;;2.00;;
21507;SDS011;10915;54.352;9.074;2024-01-07T08:39:59;6.53;;;2.87;;
21507;SDS011;10915;54.352;9.074;2024-01-07T08:42:26;3.10;;;2.00;;
21507;SDS011;10915;54.352;9.074;2024-01-07T08:44:54;4.33;;;2.13;;
21507;SDS011;10915;54.352;9.074;2024-01-07T08:47:20;3.93;;;1.70;;
21507;SDS011;10915;54.352;9.074;2024-01-07T08:49:46;11.93;;;2.60;;
21507;SDS011;10915;54.352;9.074;2024-01-07T08:52:11;8.57;;;2.63;;
21507;SDS011;10915;54.352;9.074;2024-01-07T08:54:37;4.67;;;2.27;;
21507;SDS011;10915;54.352;9.074;2024-01-07T08:57:02;8.83;;;2.23;;
21507;SDS011;10915;54.352;9.074;2024-01-07T08:59:28;8.90;;;3.00;;
21507;SDS011;10915;54.352;9.074;2024-01-07T09:01:54;4.17;;;1.57;;
21507;SDS011;10915;54.352;9.074;2024-01-07T09:04:19;7.17;;;2.70;;
21507;SDS011;10915;54.352;9.074;2024-01-07T09:06:45;7.27;;;2.40;;
21507;SDS011;10915;54.352;9.074;2024-01-07T09:09:11;8.77;;;2.30;;
21507;SDS011;10915;54.352;9.074;2024-01-07T09:11:36;8.90;;;2.40;;
21507;SDS011;10915;54.352;9.074;2024-01-07T09:14:02;5.77;;;2.23;;
21507;SDS011;10915;54.352;9.074;2024-01-07T09:16:28;5.57;;;2.50;;
21507;SDS011;10915;54.352;9.074;2024-01-07T09:18:54;4.23;;;2.40;;
21507;SDS011;10915;54.352;9.074;2024-01-07T09:21:20;5.03;;;2.13;;
21507;SDS011;10915;54.352;9.074;2024-01-07T09:23:48;11.00;;;2.70;;
21507;SDS011;10915;54.352;9.074;2024-01-07T09:26:13;3.13;;;1.60;;
21507;SDS011;10915;54.352;9.074;2024-01-07T09:28:39;4.70;;;2.83;;
21507;SDS011;10915;54.352;9.074;2024-01-07T09:31:06;9.97;;;2.57;;
21507;SDS011;10915;54.352;9.074;2024-01-07T09:33:32;7.07;;;3.00;;
21507;SDS011;10915;54.352;9.074;2024-01-07T09:35:57;4.20;;;2.20;;
21507;SDS011;10915;54.352;9.074;2024-01-07T09:38:23;7.30;;;2.83;;
21507;SDS011;10915;54.352;9.074;2024-01-07T09:40:50;6.30;;;2.77;;
21507;SDS011;10915;54.352;9.074;2024-01-07T09:43:16;4.97;;;2.60;;
21507;SDS011;10915;54.352;9.074;2024-01-07T09:45:42;5.63;;;2.53;;
21507;SDS011;10915;54.352;9.074;2024-01-07T09:48:12;3.87;;;2.43;;
21507;SDS011;10915;54.352;9.074;2024-01-07T09:50:37;3.67;;;1.90;;
21507;SDS011;10915;54.352;9.074;2024-01-07T09:53:03;6.73;;;1.90;;
21507;SDS011;10915;54.352;9.074;2024-01-07T09:55:47;3.33;;;1.83;;
21507;SDS011;10915;54.352;9.074;2024-01-07T09:58:21;5.13;;;2.40;;
21507;SDS011;10915;54.352;9.074;2024-01-07T10:00:47;1.97;;;1.47;;
21507;SDS011;10915;54.352;9.074;2024-01-07T10:03:13;8.03;;;3.00;;
21507;SDS011;10915;54.352;9.074;2024-01-07T10:05:39;6.00;;;2.23;;
21507;SDS011;10915;54.352;9.074;2024-01-07T10:08:05;5.67;;;2.40;;
21507;SDS011;10915;54.352;9.074;2024-01-07T10:10:31;6.00;;;2.50;;
21507;SDS011;10915;54.352;9.074;2024-01-07T10:12:59;9.77;;;2.43;;
21507;SDS011;10915;54.352;9.074;2024-01-07T10:15:25;5.77;;;2.37;;
21507;SDS011;10915;54.352;9.074;2024-01-07T10:17:54;4.13;;;2.50;;
21507;SDS011;10915;54.352;9.074;2024-01-07T10:20:21;4.80;;;2.30;;
21507;SDS011;10915;54.352;9.074;2024-01-07T10:22:49;8.10;;;2.27;;
21507;SDS011;10915;54.352;9.074;2024-01-07T10:25:15;6.30;;;2.87;;
21507;SDS011;10915;54.352;9.074;2024-01-07T10:27:41;5.23;;;1.93;;
21507;SDS011;10915;54.352;9.074;2024-01-07T10:30:06;3.90;;;2.17;;
21507;SDS011;10915;54.352;9.074;2024-01-07T10:32:34;4.53;;;2.40;;
21507;SDS011;10915;54.352;9.074;2024-01-07T10:35:02;5.47;;;2.43;;
21507;SDS011;10915;54.352;9.074;2024-01-07T10:37:32;6.83;;;2.83;;
21507;SDS011;10915;54.352;9.074;2024-01-07T10:39:58;9.00;;;2.90;;
21507;SDS011;10915;54.352;9.074;2024-01-07T10:42:29;7.83;;;2.33;;
21507;SDS011;10915;54.352;9.074;2024-01-07T10:44:57;4.83;;;2.30;;
21507;SDS011;10915;54.352;9.074;2024-01-07T10:47:23;7.13;;;2.20;;
21507;SDS011;10915;54.352;9.074;2024-01-07T10:49:54;2.73;;;1.43;;
21507;SDS011;10915;54.352;9.074;2024-01-07T10:52:22;5.60;;;2.73;;
21507;SDS011;10915;54.352;9.074;2024-01-07T10:54:48;5.00;;;2.20;;
21507;SDS011;10915;54.352;9.074;2024-01-07T11:00:00;3.47;;;2.20;;
21507;SDS011;10915;54.352;9.074;2024-01-07T11:02:31;4.40;;;2.50;;
21507;SDS011;10915;54.352;9.074;2024-01-07T11:05:08;4.80;;;2.50;;
21507;SDS011;10915;54.352;9.074;2024-01-07T11:07:41;4.97;;;2.33;;
21507;SDS011;10915;54.352;9.074;2024-01-07T11:10:18;5.77;;;2.43;;
21507;SDS011;10915;54.352;9.074;2024-01-07T11:12:54;3.27;;;2.10;;
21507;SDS011;10915;54.352;9.074;2024-01-07T11:18:22;5.40;;;1.77;;
21507;SDS011;10915;54.352;9.074;2024-01-07T11:20:48;4.87;;;1.90;;
21507;SDS011;10915;54.352;9.074;2024-01-07T11:23:27;4.63;;;2.43;;
21507;SDS011;10915;54.352;9.074;2024-01-07T11:26:05;6.17;;;3.80;;
21507;SDS011;10915;54.352;9.074;2024-01-07T11:31:17;4.70;;;2.27;;
21507;SDS011;10915;54.352;9.074;2024-01-07T11:33:45;5.57;;;2.57;;
21507;SDS011;10915;54.352;9.074;2024-01-07T11:36:12;4.23;;;2.00;;
21507;SDS011;10915;54.352;9.074;2024-01-07T11:38:42;3.30;;;1.97;;
21507;SDS011;10915;54.352;9.074;2024-01-07T11:41:15;3.47;;;1.73;;
21507;SDS011;10915;54.352;9.074;2024-01-07T11:46:39;6.80;;;2.10;;
21507;SDS011;10915;54.352;9.074;2024-01-07T11:49:06;3.03;;;1.97;;
21507;SDS011;10915;54.352;9.074;2024-01-07T11:51:34;3.90;;;1.77;;
21507;SDS011;10915;54.352;9.074;2024-01-07T11:54:00;5.03;;;2.50;;
21507;SDS011;10915;54.352;9.074;2024-01-07T11:56:27;9.73;;;2.60;;
21507;SDS011;10915;54.352;9.074;2024-01-07T11:58:53;5.83;;;2.33;;
21507;SDS011;10915;54.352;9.074;2024-01-07T12:01:21;5.27;;;2.10;;
21507;SDS011;10915;54.352;9.074;2024-01-07T12:03:46;4.80;;;2.07;;
21507;SDS011;10915;54.352;9.074;2024-01-07T12:06:12;5.97;;;1.90;;
21507;SDS011;10915;54.352;9.074;2024-01-07T12:08:42;7.10;;;2.97;;
21507;SDS011;10915;54.352;9.074;2024-01-07T12:11:08;5.37;;;2.43;;
21507;SDS011;10915;54.352;9.074;2024-01-07T12:13:36;6.27;;;2.37;;
21507;SDS011;10915;54.352;9.074;2024-01-07T12:16:02;4.80;;;2.37;;
21507;SDS011;10915;54.352;9.074;2024-01-07T12:18:29;6.07;;;2.90;;
21507;SDS011;10915;54.352;9.074;2024-01-07T12:20:56;9.10;;;2.87;;
21507;SDS011;10915;54.352;9.074;2024-01-07T12:23:22;7.00;;;2.57;;
21507;SDS011;10915;54.352;9.074;2024-01-07T12:25:49;8.97;;;2.63;;
21507;SDS011;10915;54.352;9.074;2024-01-07T12:28:16;5.70;;;2.83;;
21507;SDS011;10915;54.352;9.074;2024-01-07T12:30:43;4.87;;;2.67;;
21507;SDS011;10915;54.352;9.074;2024-01-07T12:33:09;4.40;;;1.97;;
21507;SDS011;10915;54.352;9.074;2024-01-07T12:35:35;4.93;;;2.53;;
21507;SDS011;10915;54.352;9.074;2024-01-07T12:38:01;3.77;;;2.10;;
21507;SDS011;10915;54.352;9.074;2024-01-07T12:40:27;5.63;;;4.00;;
21507;SDS011;10915;54.352;9.074;2024-01-07T12:42:53;6.20;;;3.90;;
21507;SDS011;10915;54.352;9.074;2024-01-07T12:45:19;7.23;;;4.00;;
21507;SDS011;10915;54.352;9.074;2024-01-07T12:47:44;6.53;;;3.97;;
21507;SDS011;10915;54.352;9.074;2024-01-07T12:50:13;5.10;;;3.70;;
21507;SDS011;10915;54.352;9.074;2024-01-07T12:52:40;4.13;;;3.10;;
21507;SDS011;10915;54.352;9.074;2024-01-07T12:55:06;6.87;;;3.77;;
21507;SDS011;10915;54.352;9.074;2024-01-07T12:57:32;5.70;;;3.53;;
21507;SDS011;10915;54.352;9.074;2024-01-07T12:59:58;5.20;;;3.50;;
21507;SDS011;10915;54.352;9.074;2024-01-07T13:02:24;6.87;;;3.23;;
21507;SDS011;10915;54.352;9.074;2024-01-07T13:04:50;4.10;;;2.70;;
21507;SDS011;10915;54.352;9.074;2024-01-07T13:07:16;4.67;;;3.27;;
21507;SDS011;10915;54.352;9.074;2024-01-07T13:09:41;8.80;;;2.50;;
21507;SDS011;10915;54.352;9.074;2024-01-07T13:12:09;3.73;;;2.20;;
21507;SDS011;10915;54.352;9.074;2024-01-07T13:14:35;4.40;;;2.27;;
21507;SDS011;10915;54.352;9.074;2024-01-07T13:17:01;4.20;;;1.97;;
21507;SDS011;10915;54.352;9.074;2024-01-07T13:19:26;9.33;;;1.80;;
21507;SDS011;10915;54.352;9.074;2024-01-07T13:21:52;2.27;;;1.37;;
21507;SDS011;10915;54.352;9.074;2024-01-07T13:24:20;5.50;;;1.67;;
21507;SDS011;10915;54.352;9.074;2024-01-07T13:26:47;5.70;;;1.87;;
21507;SDS011;10915;54.352;9.074;2024-01-07T13:29:12;3.90;;;1.90;;
21507;SDS011;10915;54.352;9.074;2024-01-07T13:31:38;4.07;;;1.70;;
21507;SDS011;10915;54.352;9.074;2024-01-07T13:34:05;3.50;;;1.80;;
21507;SDS011;10915;54.352;9.074;2024-01-07T13:36:31;4.67;;;2.30;;
21507;SDS011;10915;54.352;9.074;2024-01-07T13:38:57;3.00;;;1.87;;
21507;SDS011;10915;54.352;9.074;2024-01-07T13:41:22;3.17;;;1.53;;
21507;SDS011;10915;54.352;9.074;2024-01-07T13:43:48;7.10;;;1.70;;
21507;SDS011;10915;54.352;9.074;2024-01-07T13:46:14;3.90;;;2.10;;
21507;SDS011;10915;54.352;9.074;2024-01-07T13:48:40;3.73;;;1.73;;
21507;SDS011;10915;54.352;9.074;2024-01-07T13:51:07;4.57;;;1.80;;
21507;SDS011;10915;54.352;9.074;2024-01-07T13:53:34;5.87;;;1.97;;
21507;SDS011;10915;54.352;9.074;2024-01-07T13:56:00;5.13;;;2.03;;
21507;SDS011;10915;54.352;9.074;2024-01-07T13:58:25;2.30;;;1.70;;
21507;SDS011;10915;54.352;9.074;2024-01-07T14:00:51;5.87;;;1.80;;
21507;SDS011;10915;54.352;9.074;2024-01-07T14:03:17;3.73;;;1.20;;
21507;SDS011;10915;54.352;9.074;2024-01-07T14:05:43;2.00;;;1.37;;
21507;SDS011;10915;54.352;9.074;2024-01-07T14:08:08;3.70;;;1.87;;
21507;SDS011;10915;54.352;9.074;2024-01-07T14:10:34;2.93;;;1.73;;
21507;SDS011;10915;54.352;9.074;2024-01-07T14:13:01;2.80;;;1.40;;
21507;SDS011;10915;54.352;9.074;2024-01-07T14:15:27;2.83;;;1.50;;
21507;SDS011;10915;54.352;9.074;2024-01-07T14:17:54;3.47;;;1.90;;
21507;SDS011;10915;54.352;9.074;2024-01-07T14:20:19;5.00;;;1.87;;
21507;SDS011;10915;54.352;9.074;2024-01-07T14:22:46;5.80;;;1.57;;
21507;SDS011;10915;54.352;9.074;2024-01-07T14:25:12;2.73;;;1.63;;
21507;SDS011;10915;54.352;9.074;2024-01-07T14:27:39;3.10;;;1.80;;
21507;SDS011;10915;54.352;9.074;2024-01-07T14:30:05;3.50;;;1.63;;
21507;SDS011;10915;54.352;9.074;2024-01-07T14:32:31;2.90;;;1.27;;
21507;SDS011;10915;54.352;9.074;2024-01-07T14:34:58;2.47;;;1.30;;
21507;SDS011;10915;54.352;9.074;2024-01-07T14:37:23;2.13;;;1.30;;
21507;SDS011;10915;54.352;9.074;2024-01-07T14:39:49;3.13;;;1.90;;
21507;SDS011;10915;54.352;9.074;2024-01-07T14:42:15;5.83;;;1.33;;
21507;SDS011;10915;54.352;9.074;2024-01-07T14:44:40;4.00;;;1.97;;
21507;SDS011;10915;54.352;9.074;2024-01-07T14:47:07;2.20;;;1.50;;
21507;SDS011;10915;54.352;9.074;2024-01-07T14:49:33;2.27;;;1.80;;
21507;SDS011;10915;54.352;9.074;2024-01-07T14:51:59;5.03;;;1.37;;